createdAt,value
2018-10-12T00:00:44.047Z,67.60
2018-10-12T00:03:13.758Z,67.30
2018-10-12T00:05:43.339Z,67.60
2018-10-12T00:08:12.542Z,67.55
2018-10-12T00:10:41.362Z,67.73
2018-10-12T00:13:10.051Z,67.78
2018-10-12T00:15:39.056Z,68.32
2018-10-12T00:18:07.998Z,67.98
2018-10-12T00:20:36.794Z,67.97
2018-10-12T00:23:05.463Z,68.12
2018-10-12T00:25:34.264Z,68.37
2018-10-12T00:28:03.297Z,68.60
2018-10-12T00:30:32.184Z,68.59
2018-10-12T00:33:00.927Z,70.14
2018-10-12T00:35:29.871Z,70.99
2018-10-12T00:37:58.843Z,70.59
2018-10-12T00:40:28.018Z,69.96
2018-10-12T00:42:56.909Z,70.17
2018-10-12T00:45:25.778Z,71.21
2018-10-12T00:48:00.468Z,72.22
2018-10-12T00:50:30.448Z,72.21
2018-10-12T00:52:59.219Z,71.28
2018-10-12T00:55:28.963Z,71.31
2018-10-12T00:57:57.746Z,71.79
2018-10-12T01:00:27.044Z,71.11
2018-10-12T01:02:56.586Z,70.64
2018-10-12T01:05:25.625Z,69.88
2018-10-12T01:07:54.770Z,70.19
2018-10-12T01:10:24.067Z,70.26
2018-10-12T01:12:53.200Z,69.12
2018-10-12T01:15:22.527Z,69.70
2018-10-12T01:17:52.133Z,70.18
2018-10-12T01:20:20.939Z,69.93
2018-10-12T01:22:49.598Z,69.50
2018-10-12T01:25:18.743Z,68.50
2018-10-12T01:27:47.926Z,68.25
2018-10-12T01:30:16.820Z,68.97
2018-10-12T01:32:51.150Z,68.60
2018-10-12T01:35:19.969Z,68.56
2018-10-12T01:37:48.943Z,68.81
2018-10-12T01:40:17.931Z,69.47
2018-10-12T01:42:46.811Z,69.51
2018-10-12T01:45:15.602Z,69.18
2018-10-12T01:47:44.710Z,69.10
2018-10-12T01:50:13.577Z,68.69
2018-10-12T01:52:42.371Z,68.49
2018-10-12T01:55:11.267Z,68.07
2018-10-12T01:57:40.155Z,68.40
2018-10-12T02:00:09.174Z,68.92
2018-10-12T02:02:38.387Z,69.07
2018-10-12T02:05:08.039Z,68.70
2018-10-12T02:07:36.988Z,71.43
2018-10-12T02:10:06.285Z,71.91
2018-10-12T02:12:35.351Z,70.44
2018-10-12T02:15:04.340Z,70.50
2018-10-12T02:17:33.171Z,71.44
2018-10-12T02:20:01.864Z,71.38
2018-10-12T02:22:30.651Z,71.21
2018-10-12T02:24:59.814Z,71.31
2018-10-12T02:27:28.694Z,70.54
2018-10-12T02:29:57.976Z,70.96
2018-10-12T02:32:26.899Z,70.22
2018-10-12T02:34:56.010Z,70.58
2018-10-12T02:37:25.278Z,70.63
2018-10-12T02:39:54.121Z,70.54
2018-10-12T02:42:23.042Z,72.10
2018-10-12T02:44:52.496Z,72.19
2018-10-12T02:47:21.226Z,71.32
2018-10-12T02:49:49.935Z,71.63
2018-10-12T02:52:18.982Z,72.57
2018-10-12T02:54:48.046Z,73.49
2018-10-12T02:57:17.129Z,74.10
2018-10-12T02:59:45.961Z,74.19
2018-10-12T03:02:14.717Z,74.85
2018-10-12T03:04:43.925Z,74.68
2018-10-12T03:07:13.126Z,73.82
2018-10-12T03:09:42.052Z,74.15
2018-10-12T03:12:10.892Z,75.23
2018-10-12T03:14:39.682Z,75.83
2018-10-12T03:17:08.773Z,76.49
2018-10-12T03:19:37.785Z,76.47
2018-10-12T03:22:06.504Z,77.08
2018-10-12T03:24:35.192Z,76.21
2018-10-12T03:27:03.918Z,75.92
2018-10-12T03:29:32.858Z,75.57
2018-10-12T03:32:02.027Z,74.00
2018-10-12T03:34:31.440Z,74.13
2018-10-12T03:37:00.292Z,74.34
2018-10-12T03:39:29.254Z,74.08
2018-10-12T03:41:58.338Z,73.78
2018-10-12T03:44:27.400Z,73.69
2018-10-12T03:46:56.454Z,74.51
2018-10-12T03:49:25.451Z,75.79
2018-10-12T03:51:54.272Z,75.85
2018-10-12T03:54:23.246Z,74.90
2018-10-12T03:56:52.603Z,75.22
2018-10-12T03:59:21.524Z,74.96
2018-10-12T04:01:50.246Z,74.42
2018-10-12T04:04:19.140Z,73.60
2018-10-12T04:06:48.122Z,73.91
2018-10-12T04:09:17.033Z,74.74
2018-10-12T04:11:46.147Z,74.92
2018-10-12T04:14:14.971Z,74.70
2018-10-12T04:16:43.924Z,75.63
2018-10-12T04:19:12.914Z,75.99
2018-10-12T04:21:41.543Z,75.17
2018-10-12T04:24:10.234Z,74.66
2018-10-12T04:26:39.692Z,74.51
2018-10-12T04:29:08.590Z,75.77
2018-10-12T04:31:37.683Z,76.42
2018-10-12T04:34:06.721Z,77.40
2018-10-12T04:36:35.676Z,78.05
2018-10-12T04:39:15.849Z,78.22
2018-10-12T04:41:44.899Z,77.04
2018-10-12T04:44:13.992Z,76.61
2018-10-12T04:46:44.087Z,75.85
2018-10-12T04:49:14.716Z,75.55
2018-10-12T04:51:48.169Z,76.01
2018-10-12T04:54:17.487Z,76.53
2018-10-12T04:56:47.011Z,75.63
2018-10-12T04:59:16.024Z,75.42
2018-10-12T05:01:44.959Z,74.87
2018-10-12T05:04:13.850Z,74.96
2018-10-12T05:06:43.083Z,74.28
2018-10-12T05:09:13.001Z,74.00
2018-10-12T05:11:42.100Z,74.37
2018-10-12T05:14:11.699Z,73.87
2018-10-12T05:16:40.484Z,73.68
2018-10-12T05:19:09.287Z,73.21
2018-10-12T05:21:38.372Z,72.46
2018-10-12T05:24:07.241Z,71.66
2018-10-12T05:26:36.071Z,70.73
2018-10-12T05:29:04.758Z,70.81
2018-10-12T05:31:33.626Z,69.81
2018-10-12T05:34:02.277Z,70.00
2018-10-12T05:36:31.187Z,69.58
2018-10-12T05:39:00.256Z,69.15
2018-10-12T05:41:29.330Z,68.46
2018-10-12T05:43:58.267Z,67.87
2018-10-12T05:46:26.977Z,67.86
2018-10-12T05:49:06.931Z,66.75
2018-10-12T05:51:35.891Z,66.48
2018-10-12T05:54:05.434Z,66.97
2018-10-12T05:56:36.180Z,65.36
2018-10-12T05:59:05.922Z,64.39
2018-10-12T06:01:35.094Z,62.94
2018-10-12T06:04:04.203Z,63.33
2018-10-12T06:06:33.210Z,62.77
2018-10-12T06:09:02.183Z,61.24
2018-10-12T06:11:31.367Z,60.62
2018-10-12T06:14:00.130Z,59.82
2018-10-12T06:16:29.027Z,59.22
2018-10-12T06:18:57.695Z,58.78
2018-10-12T06:21:26.602Z,57.68
2018-10-12T06:23:55.800Z,56.90
2018-10-12T06:26:24.678Z,55.76
2018-10-12T06:28:53.470Z,55.52
2018-10-12T06:31:22.794Z,54.61
2018-10-12T06:33:51.775Z,54.33
2018-10-12T06:36:20.862Z,54.57
2018-10-12T06:38:50.420Z,54.64
2018-10-12T06:41:19.367Z,54.63
2018-10-12T06:43:48.253Z,54.78
2018-10-12T06:46:17.508Z,54.92
2018-10-12T06:48:46.240Z,54.65
2018-10-12T06:51:15.036Z,54.57
2018-10-12T06:53:44.411Z,54.61
2018-10-12T06:56:13.327Z,54.15
2018-10-12T06:58:42.219Z,53.62
2018-10-12T07:01:11.294Z,54.14
2018-10-12T07:03:40.218Z,52.97
2018-10-12T07:06:09.078Z,53.12
2018-10-12T07:08:38.455Z,53.01
2018-10-12T07:11:07.511Z,51.65
2018-10-12T07:13:36.504Z,51.51
2018-10-12T07:16:05.543Z,51.23
2018-10-12T07:18:34.524Z,51.86
2018-10-12T07:21:03.491Z,51.55
2018-10-12T07:23:32.533Z,51.66
2018-10-12T07:26:01.325Z,51.19
2018-10-12T07:28:30.149Z,51.26
2018-10-12T07:30:58.832Z,51.37
2018-10-12T07:33:27.847Z,51.88
2018-10-12T07:35:56.811Z,50.70
2018-10-12T07:38:25.813Z,50.94
2018-10-12T07:40:54.831Z,50.62
2018-10-12T07:43:23.811Z,49.58
2018-10-12T07:45:52.608Z,49.41
2018-10-12T07:48:21.660Z,49.05
2018-10-12T07:50:50.763Z,48.97
2018-10-12T07:53:20.100Z,48.72
2018-10-12T07:55:49.330Z,48.70
2018-10-12T07:58:18.380Z,47.59
2018-10-12T08:00:47.421Z,47.33
2018-10-12T08:03:16.409Z,46.89
2018-10-12T08:05:45.306Z,46.00
2018-10-12T08:08:14.690Z,46.29
2018-10-12T08:10:43.869Z,45.08
2018-10-12T08:13:12.601Z,45.18
2018-10-12T08:15:41.745Z,44.59
2018-10-12T08:18:10.686Z,44.87
2018-10-12T08:20:39.734Z,45.54
2018-10-12T08:23:09.154Z,45.14
2018-10-12T08:25:38.166Z,44.74
2018-10-12T08:28:07.334Z,44.41
2018-10-12T08:30:36.446Z,44.31
2018-10-12T08:33:05.157Z,44.38
2018-10-12T08:35:34.141Z,43.39
2018-10-12T08:38:03.042Z,43.25
2018-10-12T08:40:31.791Z,43.43
2018-10-12T08:43:00.434Z,43.62
2018-10-12T08:45:29.468Z,43.12
2018-10-12T08:47:58.272Z,42.09
2018-10-12T08:50:27.193Z,41.93
2018-10-12T08:52:56.258Z,41.56
2018-10-12T08:55:25.304Z,41.43
2018-10-12T08:57:54.444Z,41.29
2018-10-12T09:00:23.482Z,40.62
2018-10-12T09:02:52.343Z,40.25
2018-10-12T09:05:21.272Z,39.47
2018-10-12T09:07:50.545Z,39.04
2018-10-12T09:10:19.625Z,38.50
2018-10-12T09:12:48.304Z,38.12
2018-10-12T09:15:17.425Z,38.15
2018-10-12T09:17:46.623Z,36.81
2018-10-12T09:20:15.434Z,35.72
2018-10-12T09:22:44.480Z,36.03
2018-10-12T09:25:13.489Z,35.37
2018-10-12T09:27:42.367Z,34.33
2018-10-12T09:30:11.425Z,34.62
2018-10-12T09:32:40.359Z,35.36
2018-10-12T09:35:09.407Z,35.39
2018-10-12T09:37:38.562Z,35.66
2018-10-12T09:40:07.276Z,35.29
2018-10-12T09:42:36.028Z,35.60
2018-10-12T09:45:05.460Z,35.08
2018-10-12T09:47:34.317Z,34.10
2018-10-12T09:50:03.186Z,33.05
2018-10-12T09:52:32.229Z,32.08
2018-10-12T09:55:00.860Z,32.37
2018-10-12T09:57:36.963Z,32.06
2018-10-12T10:00:12.790Z,31.44
2018-10-12T10:02:48.801Z,31.00
2018-10-12T10:05:18.019Z,29.82
2018-10-12T10:07:46.900Z,28.92
2018-10-12T10:10:15.662Z,27.54
2018-10-12T10:12:44.746Z,28.34
2018-10-12T10:15:13.959Z,27.59
2018-10-12T10:17:43.040Z,27.69
2018-10-12T10:20:11.966Z,28.46
2018-10-12T10:22:41.185Z,28.50
2018-10-12T10:25:10.383Z,27.73
2018-10-12T10:27:38.955Z,28.14
2018-10-12T10:30:08.363Z,28.27
2018-10-12T10:32:37.539Z,28.66
2018-10-12T10:35:06.835Z,28.44
2018-10-12T10:37:35.916Z,29.23
2018-10-12T10:40:04.858Z,28.36
2018-10-12T10:42:33.582Z,29.10
2018-10-12T10:45:02.853Z,30.24
2018-10-12T10:47:31.450Z,29.73
2018-10-12T10:50:00.167Z,29.97
2018-10-12T10:52:29.194Z,29.51
2018-10-12T10:54:58.153Z,28.85
2018-10-12T10:57:26.942Z,29.16
2018-10-12T10:59:55.906Z,29.27
2018-10-12T11:02:24.708Z,29.74
2018-10-12T11:04:53.666Z,29.95
2018-10-12T11:07:22.713Z,29.67
2018-10-12T11:09:51.592Z,29.69
2018-10-12T11:12:20.314Z,28.66
2018-10-12T11:14:48.977Z,27.81
2018-10-12T11:17:17.832Z,27.27
2018-10-12T11:19:46.859Z,26.65
2018-10-12T11:22:15.595Z,26.41
2018-10-12T11:24:44.441Z,25.06
2018-10-12T11:27:13.470Z,24.71
2018-10-12T11:29:42.336Z,24.49
2018-10-12T11:32:11.427Z,25.25
2018-10-12T11:34:40.407Z,25.42
2018-10-12T11:37:09.239Z,26.20
2018-10-12T11:39:37.984Z,26.11
2018-10-12T11:42:06.771Z,26.50
2018-10-12T11:44:35.660Z,27.32
2018-10-12T11:47:05.019Z,28.00
2018-10-12T11:49:33.979Z,28.00
2018-10-12T11:52:03.108Z,27.82
2018-10-12T11:54:32.187Z,27.41
2018-10-12T11:57:01.148Z,26.98
2018-10-12T11:59:30.257Z,27.00
2018-10-12T12:01:59.092Z,26.83
2018-10-12T12:04:27.922Z,26.35
2018-10-12T12:06:56.573Z,26.60
2018-10-12T12:09:26.386Z,25.56
2018-10-12T12:11:55.084Z,25.14
2018-10-12T12:14:24.347Z,25.06
2018-10-12T12:16:53.641Z,23.45
2018-10-12T12:19:22.512Z,24.42
2018-10-12T12:21:51.411Z,23.11
2018-10-12T12:24:20.528Z,23.37
2018-10-12T12:26:49.710Z,23.70
2018-10-12T12:29:18.801Z,24.16
2018-10-12T12:31:48.022Z,24.78
2018-10-12T12:34:17.098Z,24.20
2018-10-12T12:36:45.682Z,24.66
2018-10-12T12:39:14.638Z,23.92
2018-10-12T12:41:43.371Z,23.95
2018-10-12T12:44:12.314Z,24.07
2018-10-12T12:46:41.359Z,24.59
2018-10-12T12:49:10.680Z,24.68
2018-10-12T12:51:39.485Z,23.17
2018-10-12T12:54:08.766Z,24.52
2018-10-12T12:56:37.811Z,24.88
2018-10-12T12:59:06.728Z,25.33
2018-10-12T13:01:36.029Z,26.29
2018-10-12T13:04:05.037Z,26.46
2018-10-12T13:06:33.793Z,26.63
2018-10-12T13:09:02.830Z,27.05
2018-10-12T13:11:31.499Z,27.29
2018-10-12T13:14:00.386Z,27.76
2018-10-12T13:16:29.599Z,28.12
2018-10-12T13:18:58.783Z,28.73
2018-10-12T13:21:27.982Z,28.42
2018-10-12T13:23:56.697Z,28.91
2018-10-12T13:26:25.388Z,27.76
2018-10-12T13:28:54.789Z,28.05
2018-10-12T13:31:23.897Z,28.74
2018-10-12T13:33:52.747Z,28.43
2018-10-12T13:36:21.477Z,27.59
2018-10-12T13:38:50.184Z,27.38
2018-10-12T13:41:18.840Z,27.19
2018-10-12T13:43:48.159Z,26.83
2018-10-12T13:46:17.005Z,26.19
2018-10-12T13:48:45.895Z,26.05
2018-10-12T13:51:15.315Z,25.16
2018-10-12T13:53:43.986Z,25.49
2018-10-12T13:56:12.935Z,25.41
2018-10-12T13:58:42.304Z,25.26
2018-10-12T14:01:11.382Z,25.22
2018-10-12T14:03:40.396Z,25.35
2018-10-12T14:06:09.219Z,24.91
2018-10-12T14:08:37.983Z,25.41
2018-10-12T14:11:06.838Z,24.91
2018-10-12T14:13:35.839Z,26.02
2018-10-12T14:16:04.840Z,27.15
2018-10-12T14:18:34.026Z,27.30
2018-10-12T14:21:02.714Z,26.94
2018-10-12T14:23:31.507Z,27.76
2018-10-12T14:26:00.354Z,26.93
2018-10-12T14:28:29.387Z,26.84
2018-10-12T14:30:58.381Z,27.42
2018-10-12T14:33:27.708Z,27.96
2018-10-12T14:35:56.530Z,28.13
2018-10-12T14:38:25.142Z,27.92
2018-10-12T14:40:54.084Z,28.15
2018-10-12T14:43:22.999Z,28.08
2018-10-12T14:45:51.935Z,28.22
2018-10-12T14:48:21.609Z,28.18
2018-10-12T14:50:50.632Z,28.97
2018-10-12T14:53:19.665Z,29.91
2018-10-12T14:55:48.971Z,29.65
2018-10-12T14:58:17.931Z,30.24
2018-10-12T15:00:46.871Z,30.50
2018-10-12T15:03:16.232Z,31.08
2018-10-12T15:05:45.043Z,31.62
2018-10-12T15:08:13.775Z,32.13
2018-10-12T15:10:42.787Z,31.88
2018-10-12T15:13:11.938Z,32.41
2018-10-12T15:15:41.387Z,32.13
2018-10-12T15:18:10.394Z,32.93
2018-10-12T15:20:39.286Z,33.61
2018-10-12T15:23:08.454Z,33.53
2018-10-12T15:25:37.427Z,34.33
2018-10-12T15:28:06.492Z,34.73
2018-10-12T15:30:35.488Z,35.34
2018-10-12T15:33:04.460Z,36.22
2018-10-12T15:35:33.134Z,37.04
2018-10-12T15:38:02.108Z,37.31
2018-10-12T15:40:30.903Z,38.09
2018-10-12T15:43:00.248Z,38.29
2018-10-12T15:45:29.482Z,38.87
2018-10-12T15:47:58.646Z,39.49
2018-10-12T15:50:27.492Z,39.43
2018-10-12T15:52:56.642Z,39.75
2018-10-12T15:55:25.630Z,40.33
2018-10-12T15:57:54.676Z,40.27
2018-10-12T16:00:23.642Z,41.14
2018-10-12T16:02:52.593Z,40.77
2018-10-12T16:05:21.363Z,40.80
2018-10-12T16:07:50.126Z,41.54
2018-10-12T16:10:19.258Z,41.47
2018-10-12T16:12:48.926Z,41.79
2018-10-12T16:15:18.055Z,41.90
2018-10-12T16:17:47.019Z,42.41
2018-10-12T16:20:16.000Z,42.55
2018-10-12T16:22:44.961Z,43.06
2018-10-12T16:25:25.227Z,43.18
2018-10-12T16:27:54.293Z,43.01
2018-10-12T16:30:23.148Z,43.52
2018-10-12T16:32:52.403Z,43.24
2018-10-12T16:35:21.212Z,44.03
2018-10-12T16:37:50.214Z,43.61
2018-10-12T16:40:19.295Z,43.94
2018-10-12T16:42:48.162Z,43.85
2018-10-12T16:45:17.467Z,44.10
2018-10-12T16:47:46.742Z,44.57
2018-10-12T16:50:15.771Z,44.60
2018-10-12T16:52:44.772Z,45.32
2018-10-12T16:55:13.873Z,45.46
2018-10-12T16:57:43.119Z,45.60
2018-10-12T17:00:12.209Z,45.68
2018-10-12T17:02:41.254Z,45.08
2018-10-12T17:05:09.887Z,45.58
2018-10-12T17:07:38.979Z,45.91
2018-10-12T17:10:08.460Z,45.89
2018-10-12T17:12:37.647Z,45.73
2018-10-12T17:15:07.702Z,45.78
2018-10-12T17:17:36.775Z,45.41
2018-10-12T17:20:06.064Z,45.88
2018-10-12T17:22:35.493Z,45.68
2018-10-12T17:25:04.308Z,45.68
2018-10-12T17:27:33.382Z,45.38
2018-10-12T17:30:02.844Z,44.96
2018-10-12T17:32:31.564Z,45.30
2018-10-12T17:35:00.312Z,45.36
2018-10-12T17:37:29.147Z,45.28
2018-10-12T17:39:58.007Z,45.40
2018-10-12T17:42:26.853Z,45.16
2018-10-12T17:44:55.828Z,45.07
2018-10-12T17:47:24.987Z,44.94
2018-10-12T17:50:00.340Z,45.09
2018-10-12T17:52:29.315Z,45.06
2018-10-12T17:54:58.422Z,45.12
2018-10-12T17:57:28.518Z,45.54
2018-10-12T17:59:57.664Z,45.51
2018-10-12T18:02:26.599Z,45.61
2018-10-12T18:04:55.398Z,45.71
2018-10-12T18:07:24.316Z,45.52
2018-10-12T18:09:53.101Z,45.51
2018-10-12T18:12:22.003Z,45.21
2018-10-12T18:14:50.783Z,45.69
2018-10-12T18:17:19.511Z,45.47
2018-10-12T18:19:48.546Z,45.33
2018-10-12T18:22:17.415Z,45.24
2018-10-12T18:24:46.537Z,45.24
2018-10-12T18:27:15.730Z,45.43
2018-10-12T18:29:44.740Z,45.50
2018-10-12T18:32:13.379Z,45.55
2018-10-12T18:34:42.110Z,45.22
2018-10-12T18:37:11.005Z,44.63
2018-10-12T18:39:40.003Z,45.03
2018-10-12T18:42:09.011Z,44.92
2018-10-12T18:44:37.884Z,44.50
2018-10-12T18:47:06.580Z,45.24
2018-10-12T18:49:35.572Z,45.33
2018-10-12T18:52:04.591Z,45.49
2018-10-12T18:54:33.844Z,45.02
2018-10-12T18:57:02.734Z,44.97
2018-10-12T18:59:31.713Z,45.19
2018-10-12T19:02:00.846Z,45.20
2018-10-12T19:04:29.750Z,45.01
2018-10-12T19:06:58.694Z,45.49
2018-10-12T19:09:27.623Z,45.16
2018-10-12T19:11:56.503Z,45.91
2018-10-12T19:14:25.607Z,45.70
2018-10-12T19:16:54.388Z,45.54
2018-10-12T19:19:23.212Z,46.02
2018-10-12T19:21:52.390Z,46.69
2018-10-12T19:24:21.281Z,46.48
2018-10-12T19:26:50.176Z,46.56
2018-10-12T19:29:19.069Z,47.46
2018-10-12T19:31:47.757Z,47.77
2018-10-12T19:34:16.427Z,48.71
2018-10-12T19:36:45.547Z,48.90
2018-10-12T19:39:14.330Z,48.31
2018-10-12T19:41:43.000Z,48.86
2018-10-12T19:44:12.331Z,48.61
2018-10-12T19:46:41.516Z,48.57
2018-10-12T19:49:10.827Z,48.52
2018-10-12T19:51:39.698Z,48.78
2018-10-12T19:54:08.698Z,48.92
2018-10-12T19:56:37.487Z,49.48
2018-10-12T19:59:06.540Z,49.06
2018-10-12T20:01:35.236Z,49.18
2018-10-12T20:04:03.898Z,49.35
2018-10-12T20:06:32.895Z,50.06
2018-10-12T20:09:01.812Z,50.31
2018-10-12T20:11:30.785Z,49.93
2018-10-12T20:13:59.931Z,50.34
2018-10-12T20:16:28.867Z,50.61
2018-10-12T20:18:57.713Z,50.71
2018-10-12T20:21:26.509Z,50.67
2018-10-12T20:23:55.813Z,50.66
2018-10-12T20:26:24.698Z,50.93
2018-10-12T20:28:53.523Z,51.05
2018-10-12T20:31:22.641Z,50.75
2018-10-12T20:33:51.266Z,50.93
2018-10-12T20:36:20.103Z,50.95
2018-10-12T20:38:49.086Z,51.25
2018-10-12T20:41:17.799Z,50.77
2018-10-12T20:43:46.706Z,50.53
2018-10-12T20:46:16.010Z,51.04
2018-10-12T20:48:44.819Z,50.66
2018-10-12T20:51:14.041Z,50.36
2018-10-12T20:53:43.068Z,50.24
2018-10-12T20:56:12.043Z,50.28
2018-10-12T20:58:41.170Z,50.12
2018-10-12T21:01:10.222Z,50.44
2018-10-12T21:03:38.981Z,50.11
2018-10-12T21:06:08.254Z,50.37
2018-10-12T21:08:37.554Z,50.12
2018-10-12T21:11:06.284Z,50.23
2018-10-12T21:13:34.994Z,49.86
2018-10-12T21:16:04.088Z,50.04
2018-10-12T21:18:33.230Z,49.55
2018-10-12T21:21:02.093Z,50.13
2018-10-12T21:23:31.035Z,50.13
2018-10-12T21:26:00.208Z,50.19
2018-10-12T21:28:29.333Z,50.34
2018-10-12T21:30:58.058Z,49.52
2018-10-12T21:33:26.801Z,50.14
2018-10-12T21:35:55.601Z,49.72
2018-10-12T21:38:24.500Z,49.73
2018-10-12T21:40:53.131Z,50.04
2018-10-12T21:43:22.293Z,49.75
2018-10-12T21:45:51.215Z,49.11
2018-10-12T21:48:20.313Z,49.39
2018-10-12T21:50:49.550Z,49.76
2018-10-12T21:53:18.570Z,49.70
2018-10-12T21:55:47.765Z,49.94
2018-10-12T21:58:16.779Z,49.49
2018-10-12T22:00:49.749Z,49.44
2018-10-12T22:03:18.829Z,49.55
2018-10-12T22:05:47.540Z,50.12
2018-10-12T22:08:21.970Z,50.19
2018-10-12T22:10:50.949Z,49.94
2018-10-12T22:13:19.924Z,50.14
2018-10-12T22:15:48.779Z,50.16
2018-10-12T22:18:17.676Z,50.07
2018-10-12T22:20:46.613Z,50.19
2018-10-12T22:23:15.773Z,50.58
2018-10-12T22:25:44.874Z,50.03
2018-10-12T22:28:14.530Z,50.60
2018-10-12T22:30:43.207Z,50.25
2018-10-12T22:33:11.945Z,50.47
2018-10-12T22:35:41.003Z,50.59
2018-10-12T22:38:09.986Z,50.76
2018-10-12T22:40:38.741Z,50.55
2018-10-12T22:43:08.114Z,50.67
2018-10-12T22:45:37.079Z,50.60
2018-10-12T22:48:05.963Z,50.90
2018-10-12T22:50:35.183Z,50.65
2018-10-12T22:53:05.084Z,50.77
2018-10-12T22:55:33.860Z,50.51
2018-10-12T22:58:03.535Z,51.25
2018-10-12T23:00:33.426Z,51.48
2018-10-12T23:03:02.717Z,51.51
2018-10-12T23:05:31.779Z,52.11
2018-10-12T23:08:00.687Z,52.26
2018-10-12T23:10:30.003Z,51.76
2018-10-12T23:12:58.906Z,51.98
2018-10-12T23:15:27.862Z,52.00
2018-10-12T23:17:56.776Z,51.71
2018-10-12T23:20:25.870Z,51.03
2018-10-12T23:22:54.994Z,51.46
2018-10-12T23:25:24.043Z,52.05
2018-10-12T23:27:53.308Z,52.63
2018-10-12T23:30:22.028Z,52.84
2018-10-12T23:32:50.691Z,52.63
2018-10-12T23:35:19.837Z,52.80
2018-10-12T23:37:51.674Z,53.01
2018-10-12T23:40:20.742Z,53.47
2018-10-12T23:42:49.477Z,53.48
2018-10-12T23:45:18.604Z,53.94
2018-10-12T23:47:47.476Z,54.20
2018-10-12T23:50:16.432Z,54.43
2018-10-12T23:52:45.366Z,54.85
2018-10-12T23:55:14.796Z,54.72
2018-10-12T23:57:43.468Z,54.75
